sensor_id;sensor_type;location;lat;lon;timestamp;P1;durP1;ratioP1;P2;durP2;ratioP2
20185;SDS011;10252;48.792;8.582;2023-07-31T00:02:17;5.03;;;2.30;;
20185;SDS011;10252;48.792;8.582;2023-07-31T00:07:18;4.38;;;2.40;;
20185;SDS011;10252;48.792;8.582;2023-07-31T00:12:20;2.95;;;2.55;;
20185;SDS011;10252;48.792;8.582;2023-07-31T00:17:21;4.70;;;2.40;;
20185;SDS011;10252;48.792;8.582;2023-07-31T00:22:22;5.90;;;2.35;;
20185;SDS011;10252;48.792;8.582;2023-07-31T00:27:24;3.58;;;2.28;;
20185;SDS011;10252;48.792;8.582;2023-07-31T00:32:25;3.03;;;2.50;;
20185;SDS011;10252;48.792;8.582;2023-07-31T00:37:27;4.50;;;2.35;;
20185;SDS011;10252;48.792;8.582;2023-07-31T00:42:28;3.22;;;2.53;;
20185;SDS011;10252;48.792;8.582;2023-07-31T00:47:29;4.95;;;2.30;;
20185;SDS011;10252;48.792;8.582;2023-07-31T00:52:31;6.28;;;2.30;;
20185;SDS011;10252;48.792;8.582;2023-07-31T00:57:32;6.95;;;2.92;;
20185;SDS011;10252;48.792;8.582;2023-07-31T01:02:35;5.75;;;2.50;;
20185;SDS011;10252;48.792;8.582;2023-07-31T01:12:46;4.47;;;2.40;;
20185;SDS011;10252;48.792;8.582;2023-07-31T01:17:49;5.00;;;2.50;;
20185;SDS011;10252;48.792;8.582;2023-07-31T01:28:04;5.85;;;2.70;;
20185;SDS011;10252;48.792;8.582;2023-07-31T01:33:07;3.95;;;2.72;;
20185;SDS011;10252;48.792;8.582;2023-07-31T01:38:09;6.72;;;2.70;;
20185;SDS011;10252;48.792;8.582;2023-07-31T01:43:10;6.18;;;3.33;;
20185;SDS011;10252;48.792;8.582;2023-07-31T01:48:11;3.97;;;2.20;;
20185;SDS011;10252;48.792;8.582;2023-07-31T01:53:13;4.05;;;2.47;;
20185;SDS011;10252;48.792;8.582;2023-07-31T01:58:14;5.13;;;2.65;;
20185;SDS011;10252;48.792;8.582;2023-07-31T02:03:16;3.65;;;2.70;;
20185;SDS011;10252;48.792;8.582;2023-07-31T02:08:18;3.78;;;2.95;;
20185;SDS011;10252;48.792;8.582;2023-07-31T02:13:19;7.05;;;2.67;;
20185;SDS011;10252;48.792;8.582;2023-07-31T02:18:20;5.70;;;2.60;;
20185;SDS011;10252;48.792;8.582;2023-07-31T02:23:23;6.72;;;2.92;;
20185;SDS011;10252;48.792;8.582;2023-07-31T02:28:25;4.75;;;2.83;;
20185;SDS011;10252;48.792;8.582;2023-07-31T02:33:26;9.40;;;2.58;;
20185;SDS011;10252;48.792;8.582;2023-07-31T02:38:27;3.03;;;2.53;;
20185;SDS011;10252;48.792;8.582;2023-07-31T02:43:28;4.75;;;2.63;;
20185;SDS011;10252;48.792;8.582;2023-07-31T02:48:30;6.25;;;2.70;;
20185;SDS011;10252;48.792;8.582;2023-07-31T02:53:31;8.50;;;2.95;;
20185;SDS011;10252;48.792;8.582;2023-07-31T02:58:32;5.75;;;2.50;;
20185;SDS011;10252;48.792;8.582;2023-07-31T03:03:34;4.07;;;2.60;;
20185;SDS011;10252;48.792;8.582;2023-07-31T03:08:35;4.78;;;2.53;;
20185;SDS011;10252;48.792;8.582;2023-07-31T03:13:36;4.82;;;2.67;;
20185;SDS011;10252;48.792;8.582;2023-07-31T03:18:38;5.38;;;2.95;;
20185;SDS011;10252;48.792;8.582;2023-07-31T03:23:39;5.90;;;2.70;;
20185;SDS011;10252;48.792;8.582;2023-07-31T03:28:40;3.13;;;2.30;;
20185;SDS011;10252;48.792;8.582;2023-07-31T03:33:41;5.80;;;2.97;;
20185;SDS011;10252;48.792;8.582;2023-07-31T03:38:43;6.90;;;3.03;;
20185;SDS011;10252;48.792;8.582;2023-07-31T03:43:45;8.93;;;2.97;;
20185;SDS011;10252;48.792;8.582;2023-07-31T03:48:47;10.95;;;2.97;;
20185;SDS011;10252;48.792;8.582;2023-07-31T03:53:48;5.03;;;2.80;;
20185;SDS011;10252;48.792;8.582;2023-07-31T03:58:50;4.20;;;2.60;;
20185;SDS011;10252;48.792;8.582;2023-07-31T04:03:52;7.68;;;2.75;;
20185;SDS011;10252;48.792;8.582;2023-07-31T04:08:53;8.23;;;3.05;;
20185;SDS011;10252;48.792;8.582;2023-07-31T04:13:54;5.15;;;2.58;;
20185;SDS011;10252;48.792;8.582;2023-07-31T04:18:56;9.27;;;3.53;;
20185;SDS011;10252;48.792;8.582;2023-07-31T04:23:57;7.53;;;3.28;;
20185;SDS011;10252;48.792;8.582;2023-07-31T04:28:58;5.72;;;2.65;;
20185;SDS011;10252;48.792;8.582;2023-07-31T04:34:00;4.78;;;2.33;;
20185;SDS011;10252;48.792;8.582;2023-07-31T04:39:01;4.97;;;2.72;;
20185;SDS011;10252;48.792;8.582;2023-07-31T04:44:02;4.82;;;2.47;;
20185;SDS011;10252;48.792;8.582;2023-07-31T04:49:04;4.68;;;2.72;;
20185;SDS011;10252;48.792;8.582;2023-07-31T04:54:08;5.43;;;2.90;;
20185;SDS011;10252;48.792;8.582;2023-07-31T04:59:09;6.07;;;3.08;;
20185;SDS011;10252;48.792;8.582;2023-07-31T05:04:12;6.53;;;2.47;;
20185;SDS011;10252;48.792;8.582;2023-07-31T05:09:14;5.90;;;2.83;;
20185;SDS011;10252;48.792;8.582;2023-07-31T05:14:15;13.45;;;2.90;;
20185;SDS011;10252;48.792;8.582;2023-07-31T05:19:17;7.88;;;3.17;;
20185;SDS011;10252;48.792;8.582;2023-07-31T05:24:18;5.78;;;3.25;;
20185;SDS011;10252;48.792;8.582;2023-07-31T05:29:19;6.22;;;2.97;;
20185;SDS011;10252;48.792;8.582;2023-07-31T05:34:21;7.25;;;3.08;;
20185;SDS011;10252;48.792;8.582;2023-07-31T05:39:22;8.13;;;2.67;;
20185;SDS011;10252;48.792;8.582;2023-07-31T05:44:24;5.53;;;2.92;;
20185;SDS011;10252;48.792;8.582;2023-07-31T05:49:28;5.03;;;2.50;;
20185;SDS011;10252;48.792;8.582;2023-07-31T05:54:31;5.70;;;2.83;;
20185;SDS011;10252;48.792;8.582;2023-07-31T05:59:33;3.17;;;2.60;;
20185;SDS011;10252;48.792;8.582;2023-07-31T06:04:34;2.97;;;2.42;;
20185;SDS011;10252;48.792;8.582;2023-07-31T06:09:35;5.82;;;2.50;;
20185;SDS011;10252;48.792;8.582;2023-07-31T06:14:37;4.85;;;2.30;;
20185;SDS011;10252;48.792;8.582;2023-07-31T06:19:38;4.72;;;2.15;;
20185;SDS011;10252;48.792;8.582;2023-07-31T06:24:39;7.28;;;2.80;;
20185;SDS011;10252;48.792;8.582;2023-07-31T06:29:41;3.70;;;2.20;;
20185;SDS011;10252;48.792;8.582;2023-07-31T06:34:43;6.93;;;2.20;;
20185;SDS011;10252;48.792;8.582;2023-07-31T06:39:44;5.78;;;2.58;;
20185;SDS011;10252;48.792;8.582;2023-07-31T06:44:45;4.57;;;2.42;;
20185;SDS011;10252;48.792;8.582;2023-07-31T06:49:47;4.18;;;2.03;;
20185;SDS011;10252;48.792;8.582;2023-07-31T06:55:00;6.63;;;3.10;;
20185;SDS011;10252;48.792;8.582;2023-07-31T07:00:02;4.10;;;2.20;;
20185;SDS011;10252;48.792;8.582;2023-07-31T07:05:04;4.05;;;2.22;;
20185;SDS011;10252;48.792;8.582;2023-07-31T07:10:06;3.53;;;2.15;;
20185;SDS011;10252;48.792;8.582;2023-07-31T07:15:07;5.90;;;2.70;;
20185;SDS011;10252;48.792;8.582;2023-07-31T07:20:09;8.00;;;3.10;;
20185;SDS011;10252;48.792;8.582;2023-07-31T07:25:10;6.40;;;2.63;;
20185;SDS011;10252;48.792;8.582;2023-07-31T07:30:12;5.13;;;2.60;;
20185;SDS011;10252;48.792;8.582;2023-07-31T07:35:14;4.30;;;1.92;;
20185;SDS011;10252;48.792;8.582;2023-07-31T07:40:16;5.72;;;2.80;;
20185;SDS011;10252;48.792;8.582;2023-07-31T07:45:17;5.35;;;2.75;;
20185;SDS011;10252;48.792;8.582;2023-07-31T07:50:18;5.07;;;2.20;;
20185;SDS011;10252;48.792;8.582;2023-07-31T07:55:20;5.38;;;2.10;;
20185;SDS011;10252;48.792;8.582;2023-07-31T08:00:21;4.05;;;2.00;;
20185;SDS011;10252;48.792;8.582;2023-07-31T08:05:22;4.00;;;2.00;;
20185;SDS011;10252;48.792;8.582;2023-07-31T08:10:23;5.65;;;2.25;;
20185;SDS011;10252;48.792;8.582;2023-07-31T08:15:25;5.57;;;2.20;;
20185;SDS011;10252;48.792;8.582;2023-07-31T08:20:26;5.07;;;2.22;;
20185;SDS011;10252;48.792;8.582;2023-07-31T08:25:27;5.70;;;2.78;;
20185;SDS011;10252;48.792;8.582;2023-07-31T08:30:29;4.53;;;2.08;;
20185;SDS011;10252;48.792;8.582;2023-07-31T08:35:30;3.67;;;1.92;;
20185;SDS011;10252;48.792;8.582;2023-07-31T08:40:31;7.70;;;2.58;;
20185;SDS011;10252;48.792;8.582;2023-07-31T08:45:33;5.72;;;2.30;;
20185;SDS011;10252;48.792;8.582;2023-07-31T08:50:34;5.60;;;2.38;;
20185;SDS011;10252;48.792;8.582;2023-07-31T08:55:37;5.85;;;2.97;;
20185;SDS011;10252;48.792;8.582;2023-07-31T09:00:39;3.50;;;2.40;;
20185;SDS011;10252;48.792;8.582;2023-07-31T09:05:45;5.70;;;2.53;;
20185;SDS011;10252;48.792;8.582;2023-07-31T09:10:46;5.88;;;2.20;;
20185;SDS011;10252;48.792;8.582;2023-07-31T09:15:48;5.00;;;1.90;;
20185;SDS011;10252;48.792;8.582;2023-07-31T09:21:05;6.38;;;2.55;;
20185;SDS011;10252;48.792;8.582;2023-07-31T09:26:06;4.65;;;2.83;;
20185;SDS011;10252;48.792;8.582;2023-07-31T09:31:08;5.57;;;2.40;;
20185;SDS011;10252;48.792;8.582;2023-07-31T09:36:09;4.43;;;2.45;;
20185;SDS011;10252;48.792;8.582;2023-07-31T09:41:10;6.75;;;2.72;;
20185;SDS011;10252;48.792;8.582;2023-07-31T09:46:15;7.05;;;2.33;;
20185;SDS011;10252;48.792;8.582;2023-07-31T09:51:16;7.25;;;2.30;;
20185;SDS011;10252;48.792;8.582;2023-07-31T09:56:17;6.82;;;2.40;;
20185;SDS011;10252;48.792;8.582;2023-07-31T10:01:19;3.53;;;2.10;;
20185;SDS011;10252;48.792;8.582;2023-07-31T10:06:20;6.25;;;2.75;;
20185;SDS011;10252;48.792;8.582;2023-07-31T10:11:25;4.38;;;2.30;;
20185;SDS011;10252;48.792;8.582;2023-07-31T10:16:28;4.13;;;2.50;;
20185;SDS011;10252;48.792;8.582;2023-07-31T10:21:31;7.60;;;2.85;;
20185;SDS011;10252;48.792;8.582;2023-07-31T10:26:36;3.35;;;2.13;;
20185;SDS011;10252;48.792;8.582;2023-07-31T10:31:38;4.75;;;2.38;;
20185;SDS011;10252;48.792;8.582;2023-07-31T10:36:39;5.55;;;2.78;;
20185;SDS011;10252;48.792;8.582;2023-07-31T10:41:41;5.15;;;2.47;;
20185;SDS011;10252;48.792;8.582;2023-07-31T10:46:42;4.75;;;2.70;;
20185;SDS011;10252;48.792;8.582;2023-07-31T10:51:44;4.55;;;2.38;;
20185;SDS011;10252;48.792;8.582;2023-07-31T10:56:45;4.57;;;2.13;;
20185;SDS011;10252;48.792;8.582;2023-07-31T11:01:55;5.18;;;2.35;;
20185;SDS011;10252;48.792;8.582;2023-07-31T11:06:58;4.60;;;2.53;;
20185;SDS011;10252;48.792;8.582;2023-07-31T11:12:00;4.38;;;2.28;;
20185;SDS011;10252;48.792;8.582;2023-07-31T11:17:05;5.35;;;2.50;;
20185;SDS011;10252;48.792;8.582;2023-07-31T11:22:06;6.25;;;2.72;;
20185;SDS011;10252;48.792;8.582;2023-07-31T11:27:08;5.28;;;2.35;;
20185;SDS011;10252;48.792;8.582;2023-07-31T11:32:15;4.93;;;2.08;;
20185;SDS011;10252;48.792;8.582;2023-07-31T11:37:17;6.65;;;2.92;;
20185;SDS011;10252;48.792;8.582;2023-07-31T11:42:18;3.38;;;2.17;;
20185;SDS011;10252;48.792;8.582;2023-07-31T11:47:20;5.65;;;2.40;;
20185;SDS011;10252;48.792;8.582;2023-07-31T11:52:21;4.22;;;2.60;;
20185;SDS011;10252;48.792;8.582;2023-07-31T11:57:23;4.88;;;2.00;;
20185;SDS011;10252;48.792;8.582;2023-07-31T12:02:25;4.97;;;2.30;;
20185;SDS011;10252;48.792;8.582;2023-07-31T12:07:26;5.70;;;2.40;;
20185;SDS011;10252;48.792;8.582;2023-07-31T12:12:27;3.70;;;1.80;;
20185;SDS011;10252;48.792;8.582;2023-07-31T12:17:29;4.18;;;2.50;;
20185;SDS011;10252;48.792;8.582;2023-07-31T12:22:30;4.63;;;2.67;;
20185;SDS011;10252;48.792;8.582;2023-07-31T12:27:32;5.78;;;2.55;;
20185;SDS011;10252;48.792;8.582;2023-07-31T12:32:34;5.25;;;2.72;;
20185;SDS011;10252;48.792;8.582;2023-07-31T12:37:36;5.05;;;2.83;;
20185;SDS011;10252;48.792;8.582;2023-07-31T12:42:37;5.13;;;2.60;;
20185;SDS011;10252;48.792;8.582;2023-07-31T12:47:38;5.25;;;2.53;;
20185;SDS011;10252;48.792;8.582;2023-07-31T12:52:40;3.70;;;2.30;;
20185;SDS011;10252;48.792;8.582;2023-07-31T12:57:41;4.47;;;2.15;;
20185;SDS011;10252;48.792;8.582;2023-07-31T13:02:42;4.90;;;2.30;;
20185;SDS011;10252;48.792;8.582;2023-07-31T13:07:43;4.47;;;2.25;;
20185;SDS011;10252;48.792;8.582;2023-07-31T13:12:45;5.57;;;2.67;;
20185;SDS011;10252;48.792;8.582;2023-07-31T13:17:46;6.18;;;3.15;;
20185;SDS011;10252;48.792;8.582;2023-07-31T13:22:47;4.30;;;2.40;;
20185;SDS011;10252;48.792;8.582;2023-07-31T13:27:49;2.10;;;1.80;;
20185;SDS011;10252;48.792;8.582;2023-07-31T13:32:50;3.47;;;2.38;;
20185;SDS011;10252;48.792;8.582;2023-07-31T13:37:51;5.63;;;2.80;;
20185;SDS011;10252;48.792;8.582;2023-07-31T13:42:53;3.70;;;2.25;;
20185;SDS011;10252;48.792;8.582;2023-07-31T13:47:55;4.78;;;2.25;;
20185;SDS011;10252;48.792;8.582;2023-07-31T13:52:57;4.28;;;2.42;;
20185;SDS011;10252;48.792;8.582;2023-07-31T13:57:58;3.40;;;2.13;;
20185;SDS011;10252;48.792;8.582;2023-07-31T14:02:59;5.68;;;2.33;;
20185;SDS011;10252;48.792;8.582;2023-07-31T14:08:01;3.65;;;2.22;;
20185;SDS011;10252;48.792;8.582;2023-07-31T14:13:02;4.72;;;2.42;;
20185;SDS011;10252;48.792;8.582;2023-07-31T14:18:03;3.65;;;1.95;;
20185;SDS011;10252;48.792;8.582;2023-07-31T14:23:04;3.78;;;2.75;;
20185;SDS011;10252;48.792;8.582;2023-07-31T14:28:06;4.50;;;2.33;;
20185;SDS011;10252;48.792;8.582;2023-07-31T14:33:07;6.20;;;2.28;;
20185;SDS011;10252;48.792;8.582;2023-07-31T14:38:08;3.22;;;2.00;;
20185;SDS011;10252;48.792;8.582;2023-07-31T14:43:10;3.45;;;2.40;;
20185;SDS011;10252;48.792;8.582;2023-07-31T14:48:11;9.60;;;2.45;;
20185;SDS011;10252;48.792;8.582;2023-07-31T14:53:12;3.20;;;2.10;;
20185;SDS011;10252;48.792;8.582;2023-07-31T14:58:13;4.40;;;2.05;;
20185;SDS011;10252;48.792;8.582;2023-07-31T15:03:15;5.78;;;2.85;;
20185;SDS011;10252;48.792;8.582;2023-07-31T15:08:16;5.75;;;2.50;;
20185;SDS011;10252;48.792;8.582;2023-07-31T15:13:19;2.55;;;2.30;;
20185;SDS011;10252;48.792;8.582;2023-07-31T15:18:20;3.92;;;2.20;;
20185;SDS011;10252;48.792;8.582;2023-07-31T15:23:22;3.53;;;2.28;;
20185;SDS011;10252;48.792;8.582;2023-07-31T15:28:24;4.97;;;2.33;;
20185;SDS011;10252;48.792;8.582;2023-07-31T15:33:25;4.78;;;2.70;;
20185;SDS011;10252;48.792;8.582;2023-07-31T15:38:26;3.92;;;2.20;;
20185;SDS011;10252;48.792;8.582;2023-07-31T15:43:28;3.55;;;2.83;;
20185;SDS011;10252;48.792;8.582;2023-07-31T15:48:29;3.45;;;2.35;;
20185;SDS011;10252;48.792;8.582;2023-07-31T15:53:31;6.35;;;2.55;;
20185;SDS011;10252;48.792;8.582;2023-07-31T15:58:32;4.97;;;2.67;;
20185;SDS011;10252;48.792;8.582;2023-07-31T16:03:33;5.40;;;2.65;;
20185;SDS011;10252;48.792;8.582;2023-07-31T16:08:35;5.32;;;2.67;;
20185;SDS011;10252;48.792;8.582;2023-07-31T16:13:41;4.05;;;2.53;;
20185;SDS011;10252;48.792;8.582;2023-07-31T16:18:42;6.22;;;2.75;;
20185;SDS011;10252;48.792;8.582;2023-07-31T16:23:43;4.38;;;2.45;;
20185;SDS011;10252;48.792;8.582;2023-07-31T16:28:45;5.45;;;2.50;;
20185;SDS011;10252;48.792;8.582;2023-07-31T16:33:46;6.70;;;2.78;;
20185;SDS011;10252;48.792;8.582;2023-07-31T16:38:47;5.50;;;2.38;;
20185;SDS011;10252;48.792;8.582;2023-07-31T16:43:49;4.55;;;2.50;;
20185;SDS011;10252;48.792;8.582;2023-07-31T16:48:50;5.50;;;2.85;;
20185;SDS011;10252;48.792;8.582;2023-07-31T16:53:52;3.38;;;2.25;;
20185;SDS011;10252;48.792;8.582;2023-07-31T16:58:54;5.55;;;2.28;;
20185;SDS011;10252;48.792;8.582;2023-07-31T17:03:56;4.25;;;2.53;;
20185;SDS011;10252;48.792;8.582;2023-07-31T17:08:59;4.55;;;2.42;;
20185;SDS011;10252;48.792;8.582;2023-07-31T17:14:01;4.85;;;2.65;;
20185;SDS011;10252;48.792;8.582;2023-07-31T17:19:08;4.75;;;2.75;;
20185;SDS011;10252;48.792;8.582;2023-07-31T17:24:09;5.72;;;2.70;;
20185;SDS011;10252;48.792;8.582;2023-07-31T17:29:13;4.80;;;2.60;;
20185;SDS011;10252;48.792;8.582;2023-07-31T17:34:16;5.47;;;2.92;;
20185;SDS011;10252;48.792;8.582;2023-07-31T17:39:17;6.57;;;2.70;;
20185;SDS011;10252;48.792;8.582;2023-07-31T17:44:19;4.93;;;3.13;;
20185;SDS011;10252;48.792;8.582;2023-07-31T17:49:20;4.60;;;2.85;;
20185;SDS011;10252;48.792;8.582;2023-07-31T17:54:21;8.40;;;3.17;;
20185;SDS011;10252;48.792;8.582;2023-07-31T17:59:25;4.07;;;2.70;;
20185;SDS011;10252;48.792;8.582;2023-07-31T18:04:27;6.22;;;3.60;;
20185;SDS011;10252;48.792;8.582;2023-07-31T18:09:28;4.93;;;3.15;;
20185;SDS011;10252;48.792;8.582;2023-07-31T18:14:29;4.45;;;3.22;;
20185;SDS011;10252;48.792;8.582;2023-07-31T18:19:32;5.40;;;3.58;;
20185;SDS011;10252;48.792;8.582;2023-07-31T18:24:34;7.55;;;3.50;;
20185;SDS011;10252;48.792;8.582;2023-07-31T18:29:35;8.68;;;3.75;;
20185;SDS011;10252;48.792;8.582;2023-07-31T18:34:36;5.80;;;3.72;;
20185;SDS011;10252;48.792;8.582;2023-07-31T18:39:38;6.28;;;3.65;;
20185;SDS011;10252;48.792;8.582;2023-07-31T18:44:39;5.80;;;3.40;;
20185;SDS011;10252;48.792;8.582;2023-07-31T18:49:41;5.20;;;3.25;;
20185;SDS011;10252;48.792;8.582;2023-07-31T18:54:42;3.90;;;3.20;;
20185;SDS011;10252;48.792;8.582;2023-07-31T18:59:43;8.63;;;3.80;;
20185;SDS011;10252;48.792;8.582;2023-07-31T19:04:45;5.38;;;3.45;;
20185;SDS011;10252;48.792;8.582;2023-07-31T19:09:46;5.85;;;3.90;;
20185;SDS011;10252;48.792;8.582;2023-07-31T19:14:47;6.82;;;3.90;;
20185;SDS011;10252;48.792;8.582;2023-07-31T19:19:49;6.07;;;3.63;;
20185;SDS011;10252;48.792;8.582;2023-07-31T19:24:50;6.88;;;3.70;;
20185;SDS011;10252;48.792;8.582;2023-07-31T19:29:51;9.90;;;4.88;;
20185;SDS011;10252;48.792;8.582;2023-07-31T19:34:53;5.45;;;3.78;;
20185;SDS011;10252;48.792;8.582;2023-07-31T19:39:54;6.45;;;4.13;;
20185;SDS011;10252;48.792;8.582;2023-07-31T19:44:55;8.27;;;4.40;;
20185;SDS011;10252;48.792;8.582;2023-07-31T19:49:57;8.80;;;4.28;;
20185;SDS011;10252;48.792;8.582;2023-07-31T19:54:58;10.18;;;4.32;;
20185;SDS011;10252;48.792;8.582;2023-07-31T20:00:01;7.43;;;4.32;;
20185;SDS011;10252;48.792;8.582;2023-07-31T20:05:10;7.28;;;3.90;;
20185;SDS011;10252;48.792;8.582;2023-07-31T20:10:11;4.82;;;3.22;;
20185;SDS011;10252;48.792;8.582;2023-07-31T20:15:22;6.53;;;4.25;;
20185;SDS011;10252;48.792;8.582;2023-07-31T20:20:23;6.30;;;4.68;;
20185;SDS011;10252;48.792;8.582;2023-07-31T20:25:25;4.90;;;3.42;;
20185;SDS011;10252;48.792;8.582;2023-07-31T20:30:26;15.63;;;6.95;;
20185;SDS011;10252;48.792;8.582;2023-07-31T20:35:27;8.02;;;4.85;;
20185;SDS011;10252;48.792;8.582;2023-07-31T20:40:29;6.22;;;3.63;;
20185;SDS011;10252;48.792;8.582;2023-07-31T20:45:30;6.53;;;4.13;;
20185;SDS011;10252;48.792;8.582;2023-07-31T20:50:32;5.25;;;3.63;;
20185;SDS011;10252;48.792;8.582;2023-07-31T20:55:37;6.40;;;3.35;;
20185;SDS011;10252;48.792;8.582;2023-07-31T21:00:38;5.68;;;3.70;;
20185;SDS011;10252;48.792;8.582;2023-07-31T21:05:48;6.75;;;4.20;;
20185;SDS011;10252;48.792;8.582;2023-07-31T21:10:50;6.75;;;4.32;;
20185;SDS011;10252;48.792;8.582;2023-07-31T21:15:55;8.45;;;4.10;;
20185;SDS011;10252;48.792;8.582;2023-07-31T21:20:57;5.05;;;4.13;;
20185;SDS011;10252;48.792;8.582;2023-07-31T21:25:58;6.18;;;4.00;;
20185;SDS011;10252;48.792;8.582;2023-07-31T21:31:07;9.82;;;4.70;;
20185;SDS011;10252;48.792;8.582;2023-07-31T21:36:10;7.43;;;3.88;;
20185;SDS011;10252;48.792;8.582;2023-07-31T21:41:11;6.63;;;4.70;;
20185;SDS011;10252;48.792;8.582;2023-07-31T21:46:12;7.15;;;4.57;;
20185;SDS011;10252;48.792;8.582;2023-07-31T21:51:14;6.65;;;4.35;;
20185;SDS011;10252;48.792;8.582;2023-07-31T21:56:15;6.18;;;3.75;;
20185;SDS011;10252;48.792;8.582;2023-07-31T22:01:18;7.07;;;4.32;;
20185;SDS011;10252;48.792;8.582;2023-07-31T22:06:19;6.57;;;4.47;;
20185;SDS011;10252;48.792;8.582;2023-07-31T22:11:20;6.45;;;4.40;;
20185;SDS011;10252;48.792;8.582;2023-07-31T22:16:22;7.60;;;4.55;;
20185;SDS011;10252;48.792;8.582;2023-07-31T22:21:23;6.82;;;4.20;;
20185;SDS011;10252;48.792;8.582;2023-07-31T22:26:25;7.75;;;4.03;;
20185;SDS011;10252;48.792;8.582;2023-07-31T22:31:26;6.40;;;4.28;;
20185;SDS011;10252;48.792;8.582;2023-07-31T22:36:27;9.43;;;4.30;;
20185;SDS011;10252;48.792;8.582;2023-07-31T22:41:29;10.68;;;4.30;;
20185;SDS011;10252;48.792;8.582;2023-07-31T22:46:30;6.80;;;4.07;;
20185;SDS011;10252;48.792;8.582;2023-07-31T22:51:31;8.65;;;3.60;;
20185;SDS011;10252;48.792;8.582;2023-07-31T22:56:33;7.85;;;4.70;;
20185;SDS011;10252;48.792;8.582;2023-07-31T23:01:34;4.85;;;3.92;;
20185;SDS011;10252;48.792;8.582;2023-07-31T23:06:36;8.70;;;3.95;;
20185;SDS011;10252;48.792;8.582;2023-07-31T23:11:37;8.88;;;4.13;;
20185;SDS011;10252;48.792;8.582;2023-07-31T23:16:38;7.50;;;4.38;;
20185;SDS011;10252;48.792;8.582;2023-07-31T23:21:40;7.65;;;4.35;;
20185;SDS011;10252;48.792;8.582;2023-07-31T23:26:41;9.30;;;4.60;;
20185;SDS011;10252;48.792;8.582;2023-07-31T23:31:42;6.72;;;4.05;;
20185;SDS011;10252;48.792;8.582;2023-07-31T23:36:45;7.18;;;3.88;;
20185;SDS011;10252;48.792;8.582;2023-07-31T23:41:46;7.22;;;4.65;;
20185;SDS011;10252;48.792;8.582;2023-07-31T23:46:48;8.68;;;4.03;;
20185;SDS011;10252;48.792;8.582;2023-07-31T23:51:49;8.98;;;4.75;;
20185;SDS011;10252;48.792;8.582;2023-07-31T23:56:50;8.27;;;4.43;;
